Time;durP1;ratioP1;P1;durP2;ratioP2;P2;SDS_P1;SDS_P2;PMS_P1;PMS_P2;Temp;Humidity;BMP_temperature;BMP_pressure;BME280_temperature;BME280_humidity;BME280_pressure;Samples;Min_cycle;Max_cycle;Signal;HPM_P1;HPM_P2
2021/07/09 00:01:54;;;;;;;12.65;9.20;;;;;;;24.03;61.85;100579.78;5109049;28;20104;-24
2021/07/09 00:04:23;;;;;;;13.93;10.25;;;;;;;23.96;62.61;100592.97;5108825;28;20035;-24
2021/07/09 00:06:49;;;;;;;13.52;10.73;;;;;;;24.17;61.50;100598.91;5090701;28;20040;-24
2021/07/09 00:09:14;;;;;;;13.00;9.93;;;;;;;24.26;60.92;100586.22;5108880;28;20080;-24
2021/07/09 00:11:41;;;;;;;14.32;10.75;;;;;;;23.94;61.92;100604.16;5106463;28;20035;-24
2021/07/09 00:14:08;;;;;;;14.68;10.50;;;;;;;24.12;61.84;100596.28;5088426;28;20462;-24
2021/07/09 00:16:34;;;;;;;13.47;11.03;;;;;;;24.05;62.39;100596.66;5105234;28;20028;-24
2021/07/09 00:19:02;;;;;;;22.63;13.48;;;;;;;24.09;61.97;100596.84;5108519;28;20266;-24
2021/07/09 00:21:27;;;;;;;30.75;16.52;;;;;;;24.35;60.16;100586.34;5105544;28;20039;-24
2021/07/09 00:23:53;;;;;;;26.17;15.77;;;;;;;24.16;61.36;100591.84;5107353;28;20114;-24
2021/07/09 00:26:18;;;;;;;24.33;13.90;;;;;;;24.03;61.68;100577.06;5106511;28;20102;-24
2021/07/09 00:28:44;;;;;;;22.35;14.25;;;;;;;24.20;60.85;100587.41;5097359;28;20028;-24
2021/07/09 00:31:09;;;;;;;22.42;13.13;;;;;;;24.30;60.64;100581.00;5091501;28;20027;-24
2021/07/09 00:33:35;;;;;;;19.20;11.13;;;;;;;24.30;60.05;100587.25;5088199;28;20028;-24
2021/07/09 00:36:00;;;;;;;14.77;9.93;;;;;;;24.24;59.97;100570.16;5092681;28;20035;-24
2021/07/09 00:38:26;;;;;;;14.77;9.82;;;;;;;24.29;59.91;100584.81;5108493;28;20050;-24
2021/07/09 00:40:51;;;;;;;12.68;9.43;;;;;;;23.31;63.27;100569.06;5090422;28;20031;-24
2021/07/09 00:43:17;;;;;;;14.93;11.15;;;;;;;22.92;64.11;100580.94;5108275;28;20031;-24
2021/07/09 00:45:43;;;;;;;16.20;10.75;;;;;;;22.66;65.46;100578.50;5108225;28;20505;-24
2021/07/09 00:48:09;;;;;;;11.68;8.77;;;;;;;22.43;66.59;100575.44;5108424;28;20024;-24
2021/07/09 00:50:34;;;;;;;13.48;8.48;;;;;;;22.46;67.19;100574.84;5104767;28;20035;-24
2021/07/09 00:52:59;;;;;;;11.60;8.93;;;;;;;22.39;67.64;100574.41;5104690;28;20039;-24
2021/07/09 00:55:25;;;;;;;11.07;8.65;;;;;;;22.28;68.20;100572.84;5108138;28;20027;-24
2021/07/09 00:57:51;;;;;;;10.85;9.13;;;;;;;22.19;68.60;100569.06;5107661;28;20031;-24
2021/07/09 01:00:18;;;;;;;11.07;8.45;;;;;;;22.16;68.63;100581.31;5108052;28;20388;-24
2021/07/09 01:02:44;;;;;;;12.60;8.82;;;;;;;22.11;68.48;100565.09;5108253;28;20391;-24
2021/07/09 01:05:10;;;;;;;10.35;8.25;;;;;;;22.25;68.21;100573.41;5108067;28;20627;-24
2021/07/09 01:07:36;;;;;;;10.48;8.80;;;;;;;22.39;67.95;100579.81;5107908;28;20102;-24
2021/07/09 01:10:03;;;;;;;14.43;8.88;;;;;;;22.72;66.10;100571.91;5089320;28;20061;-24
2021/07/09 01:12:28;;;;;;;11.10;9.13;;;;;;;22.45;66.99;100561.53;5089593;28;20052;-24
2021/07/09 01:14:54;;;;;;;14.32;9.10;;;;;;;22.64;65.93;100586.13;5088571;28;20603;-24
2021/07/09 01:17:19;;;;;;;14.77;9.75;;;;;;;22.46;66.01;100584.94;5072414;28;20043;-24
2021/07/09 01:19:45;;;;;;;15.52;10.68;;;;;;;21.94;67.91;100581.75;5107386;28;20032;-24
2021/07/09 01:22:10;;;;;;;13.05;10.10;;;;;;;22.32;66.88;100578.53;5107825;28;20100;-24
2021/07/09 01:24:36;;;;;;;12.20;9.18;;;;;;;22.35;67.17;100584.22;5108162;28;20031;-24
2021/07/09 01:27:02;;;;;;;11.55;9.25;;;;;;;22.71;65.57;100578.41;5107310;28;20096;-24
2021/07/09 01:29:28;;;;;;;12.10;9.35;;;;;;;22.81;65.19;100589.19;5089561;28;20508;-24
2021/07/09 01:31:53;;;;;;;10.98;9.57;;;;;;;22.27;66.84;100560.34;5074413;28;20876;-24
2021/07/09 01:34:19;;;;;;;19.17;9.45;;;;;;;21.99;68.33;100568.16;5107513;28;20043;-24
2021/07/09 01:36:44;;;;;;;13.35;9.07;;;;;;;22.49;66.98;100578.91;5089324;28;20414;-24
2021/07/09 01:39:10;;;;;;;12.60;8.88;;;;;;;22.12;68.59;100580.28;5073420;28;20035;-24
2021/07/09 01:41:36;;;;;;;13.15;9.75;;;;;;;21.71;70.03;100563.47;5087373;28;20040;-24
2021/07/09 01:44:02;;;;;;;10.82;8.98;;;;;;;21.60;70.47;100576.28;5069212;28;20388;-24
2021/07/09 01:46:28;;;;;;;14.05;9.02;;;;;;;21.43;70.42;100560.34;5069002;28;20028;-24
2021/07/09 01:48:53;;;;;;;14.55;9.25;;;;;;;21.90;69.47;100567.13;5087056;28;20020;-24
2021/07/09 01:51:19;;;;;;;11.93;9.27;;;;;;;21.78;69.94;100572.09;5087472;28;20043;-24
2021/07/09 01:53:44;;;;;;;11.57;9.00;;;;;;;21.49;70.81;100572.00;5086596;28;20035;-24
2021/07/09 01:56:10;;;;;;;11.98;9.48;;;;;;;21.78;69.65;100572.09;5088243;28;20109;-24
2021/07/09 01:58:35;;;;;;;11.20;8.80;;;;;;;22.10;68.07;100560.72;5107487;28;20031;-24
2021/07/09 02:01:01;;;;;;;13.27;9.48;;;;;;;21.90;68.16;100567.13;5107569;28;20044;-24
2021/07/09 02:03:26;;;;;;;14.77;9.57;;;;;;;22.57;65.40;100575.56;5107272;28;20036;-24
2021/07/09 02:05:51;;;;;;;13.30;9.68;;;;;;;22.53;65.29;100576.44;5107176;28;20491;-24
2021/07/09 02:08:17;;;;;;;13.05;10.43;;;;;;;22.55;64.48;100580.47;5105738;28;20036;-24
2021/07/09 02:10:43;;;;;;;15.60;10.63;;;;;;;22.37;64.97;100582.03;5106584;28;20032;-24
2021/07/09 02:13:09;;;;;;;12.57;10.45;;;;;;;22.33;64.89;100582.84;5106972;28;20424;-24
2021/07/09 02:15:47;;;;;;;13.65;9.50;;;;;;;22.34;64.63;100560.84;5089175;28;20070;-24
2021/07/09 02:18:14;;;;;;;29.02;11.20;;;;;;;22.27;65.13;100572.03;5107250;28;20395;-24
2021/07/09 02:20:40;;;;;;;17.42;9.95;;;;;;;22.01;66.55;100576.81;5107326;28;20503;-24
2021/07/09 02:23:07;;;;;;;13.90;10.43;;;;;;;21.81;66.59;100566.09;5089104;28;20039;-24
2021/07/09 02:25:33;;;;;;;12.73;9.40;;;;;;;21.37;68.19;100583.97;5107106;28;20031;-24
2021/07/09 02:27:58;;;;;;;14.25;9.60;;;;;;;21.38;68.62;100582.88;5107085;28;20050;-24
2021/07/09 02:30:25;;;;;;;12.45;8.85;;;;;;;21.74;67.52;100577.28;5089385;28;20027;-24
2021/07/09 02:32:51;;;;;;;11.27;9.02;;;;;;;21.87;66.73;100559.56;5088943;28;20045;-24
2021/07/09 02:35:21;;;;;;;17.30;8.75;;;;;;;21.55;67.96;100568.16;5101520;28;20593;-24
2021/07/09 02:37:47;;;;;;;10.63;8.27;;;;;;;21.43;68.87;100579.34;5106841;28;20080;-24
2021/07/09 02:40:13;;;;;;;14.02;9.18;;;;;;;21.53;68.31;100587.44;5089076;28;20027;-24
2021/07/09 02:42:40;;;;;;;19.58;9.45;;;;;;;21.92;66.62;100573.06;5089363;28;20792;-24
2021/07/09 02:45:08;;;;;;;15.43;10.40;;;;;;;22.04;65.79;100572.72;5076502;28;20761;-24
2021/07/09 02:47:33;;;;;;;20.30;10.40;;;;;;;22.14;65.50;100583.50;5086671;28;20766;-23
2021/07/09 02:49:58;;;;;;;17.00;10.38;;;;;;;21.53;67.17;100582.00;5087258;28;20290;-24
2021/07/09 02:52:24;;;;;;;11.70;9.57;;;;;;;21.70;66.80;100588.97;5090265;28;20045;-24
2021/07/09 02:54:49;;;;;;;14.00;9.23;;;;;;;21.29;68.35;100592.69;5090205;28;20036;-24
2021/07/09 02:57:15;;;;;;;13.70;9.60;;;;;;;21.61;67.18;100594.97;5090025;28;20027;-24
2021/07/09 02:59:40;;;;;;;15.60;10.43;;;;;;;21.53;67.29;100584.72;5090027;28;20085;-24
2021/07/09 03:02:06;;;;;;;13.98;9.55;;;;;;;21.17;68.40;100587.56;5088585;28;20035;-24
2021/07/09 03:04:31;;;;;;;13.93;10.55;;;;;;;21.37;67.95;100585.84;5090032;28;20548;-24
2021/07/09 03:06:57;;;;;;;14.32;10.40;;;;;;;21.52;67.37;100602.09;5071810;28;20026;-24
2021/07/09 03:09:22;;;;;;;16.00;11.80;;;;;;;21.78;66.34;100574.81;5089938;28;20565;-24
2021/07/09 03:11:48;;;;;;;15.10;11.50;;;;;;;21.66;67.38;100578.69;5089576;28;20027;-23
2021/07/09 03:14:13;;;;;;;15.57;11.00;;;;;;;21.42;67.92;100578.53;5102694;28;20087;-24
2021/07/09 03:16:39;;;;;;;16.80;12.68;;;;;;;21.17;69.49;100582.16;5109979;28;20027;-24
2021/07/09 03:19:05;;;;;;;16.50;12.15;;;;;;;21.15;70.33;100573.47;5110285;28;20058;-24
2021/07/09 03:21:31;;;;;;;17.00;12.25;;;;;;;21.56;68.67;100569.81;5110125;28;20027;-24
2021/07/09 03:23:56;;;;;;;17.10;11.45;;;;;;;21.80;68.71;100583.47;5109764;28;20085;-24
2021/07/09 03:26:22;;;;;;;15.48;11.77;;;;;;;22.04;68.95;100589.81;5109966;28;20483;-24
2021/07/09 03:28:47;;;;;;;16.10;12.00;;;;;;;21.73;68.34;100591.94;5109860;28;20132;-24
2021/07/09 03:31:13;;;;;;;15.77;12.02;;;;;;;21.54;69.13;100569.28;5109880;28;20487;-24
2021/07/09 03:33:38;;;;;;;15.07;11.85;;;;;;;21.63;69.86;100573.00;5109456;28;20106;-24
2021/07/09 03:36:04;;;;;;;15.40;12.15;;;;;;;21.83;68.77;100572.06;5109830;28;20028;-24
2021/07/09 03:38:30;;;;;;;19.65;12.85;;;;;;;21.99;68.01;100543.72;5109166;28;20019;-24
2021/07/09 03:40:55;;;;;;;15.48;11.30;;;;;;;22.06;68.02;100570.53;5109746;28;20563;-24
2021/07/09 03:43:21;;;;;;;14.60;10.00;;;;;;;22.01;67.63;100570.59;5109531;28;20035;-24
2021/07/09 03:45:46;;;;;;;13.98;10.50;;;;;;;21.82;68.90;100582.13;5109423;28;20057;-24
2021/07/09 03:48:12;;;;;;;13.80;9.93;;;;;;;22.08;68.02;100592.78;5091373;28;20077;-24
2021/07/09 03:50:37;;;;;;;14.00;9.75;;;;;;;21.79;68.80;100576.44;5109312;28;20085;-24
2021/07/09 03:53:03;;;;;;;12.82;10.35;;;;;;;21.56;69.26;100573.31;5109432;28;20092;-24
2021/07/09 03:55:28;;;;;;;12.85;10.70;;;;;;;21.71;69.12;100574.31;5109664;28;20462;-24
2021/07/09 03:57:54;;;;;;;14.52;11.05;;;;;;;21.77;69.38;100593.00;5109122;28;20032;-24
2021/07/09 04:00:19;;;;;;;15.13;10.85;;;;;;;21.82;69.28;100562.28;5108911;28;20034;-24
2021/07/09 04:02:45;;;;;;;17.48;11.73;;;;;;;22.47;66.88;100581.09;5091194;28;20110;-23
2021/07/09 04:05:11;;;;;;;11.35;8.95;;;;;;;22.82;66.13;100582.66;5109217;28;20951;-24
2021/07/09 04:07:40;;;;;;;12.45;9.68;;;;;;;22.84;65.43;100580.47;5109249;28;20032;-24
2021/07/09 04:10:06;;;;;;;13.93;9.10;;;;;;;22.95;65.35;100575.72;5109158;28;20038;-24
2021/07/09 04:12:31;;;;;;;10.50;8.60;;;;;;;22.93;65.21;100577.91;5108979;28;20043;-24
2021/07/09 04:14:57;;;;;;;11.85;9.18;;;;;;;22.85;65.49;100576.63;5108839;28;20036;-24
2021/07/09 04:17:22;;;;;;;14.18;10.05;;;;;;;22.63;66.00;100562.75;5108675;28;20481;-24
2021/07/09 04:19:49;;;;;;;12.70;10.10;;;;;;;22.36;67.10;100564.06;5109038;28;20027;-24
2021/07/09 04:22:16;;;;;;;13.95;9.63;;;;;;;22.52;67.10;100558.50;5109093;28;20092;-24
2021/07/09 04:24:41;;;;;;;10.25;8.85;;;;;;;22.74;66.68;100568.88;5108776;28;20023;-24
2021/07/09 04:27:07;;;;;;;12.88;9.32;;;;;;;23.19;65.39;100569.47;5108761;28;20028;-24
2021/07/09 04:29:32;;;;;;;11.95;8.90;;;;;;;23.39;64.96;100568.41;5108723;28;20031;-24
2021/07/09 04:31:58;;;;;;;11.57;9.25;;;;;;;22.92;66.87;100565.41;5108444;28;20398;-24
2021/07/09 04:34:23;;;;;;;12.35;10.45;;;;;;;22.54;68.21;100570.72;5106271;28;20030;-24
2021/07/09 04:36:49;;;;;;;14.48;11.48;;;;;;;22.82;67.35;100557.38;5088237;28;20028;-24
2021/07/09 04:39:14;;;;;;;11.70;10.05;;;;;;;22.59;67.71;100567.94;5088335;28;20031;-24
2021/07/09 04:41:40;;;;;;;12.20;9.68;;;;;;;22.85;66.71;100587.50;5088035;28;20028;-24
2021/07/09 04:44:06;;;;;;;12.25;10.00;;;;;;;22.78;67.66;100584.34;5088125;28;20031;-24
2021/07/09 04:46:31;;;;;;;12.73;11.02;;;;;;;23.22;66.32;100568.91;5070029;28;20063;-24
2021/07/09 04:48:56;;;;;;;13.45;11.50;;;;;;;23.05;67.00;100591.97;5088173;28;20024;-24
2021/07/09 04:51:22;;;;;;;16.67;12.15;;;;;;;22.73;68.19;100592.53;5087947;28;20032;-24
2021/07/09 04:53:47;;;;;;;14.85;11.98;;;;;;;22.85;68.03;100586.72;5087650;28;20028;-23
2021/07/09 04:56:13;;;;;;;16.27;12.60;;;;;;;22.94;68.01;100587.69;5087783;28;20031;-24
2021/07/09 04:58:38;;;;;;;15.43;11.52;;;;;;;22.76;67.97;100578.38;5087788;28;20028;-24
2021/07/09 05:01:04;;;;;;;16.65;11.95;;;;;;;23.09;67.55;100589.47;5087603;28;20031;-24
2021/07/09 05:03:29;;;;;;;13.48;12.07;;;;;;;23.19;67.19;100596.69;5087665;28;20036;-24
2021/07/09 05:05:55;;;;;;;15.52;12.48;;;;;;;23.36;66.69;100585.34;5087827;28;20063;-24
2021/07/09 05:08:20;;;;;;;14.00;12.40;;;;;;;23.44;67.82;100587.41;5087655;28;20519;-24
2021/07/09 05:10:46;;;;;;;17.00;12.77;;;;;;;23.57;67.08;100586.66;5087605;28;20089;-24
2021/07/09 05:13:11;;;;;;;14.32;12.82;;;;;;;23.65;66.89;100582.50;5086551;28;20051;-24
2021/07/09 05:15:37;;;;;;;15.43;12.57;;;;;;;23.90;65.50;100594.94;5087590;28;20533;-24
2021/07/09 05:18:02;;;;;;;14.82;12.32;;;;;;;23.72;66.22;100593.84;5087230;28;20471;-24
2021/07/09 05:20:28;;;;;;;13.82;11.82;;;;;;;23.79;66.15;100594.31;5087595;28;20036;-24
2021/07/09 05:22:53;;;;;;;12.73;9.57;;;;;;;24.23;64.60;100593.09;5087642;28;20055;-23
2021/07/09 05:25:19;;;;;;;17.13;11.38;;;;;;;24.03;64.72;100571.63;5087425;28;20028;-24
2021/07/09 05:27:44;;;;;;;12.65;9.63;;;;;;;24.13;65.29;100576.06;5069184;28;20035;-24
2021/07/09 05:30:10;;;;;;;14.38;11.85;;;;;;;24.39;64.12;100568.28;5087366;28;20089;-24
2021/07/09 05:32:36;;;;;;;13.25;11.00;;;;;;;24.73;63.04;100589.78;5087186;28;20029;-24
2021/07/09 05:35:01;;;;;;;15.13;10.98;;;;;;;24.90;62.79;100594.66;5087452;28;20035;-24
2021/07/09 05:37:27;;;;;;;14.38;11.52;;;;;;;24.76;62.96;100581.00;5087303;28;20032;-24
2021/07/09 05:39:52;;;;;;;15.52;12.38;;;;;;;24.60;64.88;100590.56;5068880;28;20035;-24
2021/07/09 05:42:18;;;;;;;12.77;11.25;;;;;;;24.71;64.08;100588.50;5087176;28;20028;-23
2021/07/09 05:44:43;;;;;;;14.55;11.75;;;;;;;24.71;64.82;100591.22;5087500;28;20043;-24
2021/07/09 05:47:10;;;;;;;15.00;11.27;;;;;;;24.84;63.66;100580.28;5069098;28;20407;-24
2021/07/09 05:49:35;;;;;;;13.52;11.35;;;;;;;24.66;63.57;100583.91;5087330;28;20036;-24
2021/07/09 05:52:01;;;;;;;14.02;11.15;;;;;;;24.69;64.69;100583.31;5086978;28;20043;-24
2021/07/09 05:54:26;;;;;;;14.40;11.32;;;;;;;25.03;63.46;100580.22;5086941;28;20770;-24
2021/07/09 05:56:52;;;;;;;13.68;12.27;;;;;;;25.18;62.28;100578.28;5086956;28;20089;-24
2021/07/09 05:59:17;;;;;;;13.35;11.63;;;;;;;25.44;61.61;100576.66;5087341;28;20028;-25
2021/07/09 06:01:43;;;;;;;14.23;11.98;;;;;;;25.47;62.27;100567.06;5086741;28;20033;-25
2021/07/09 06:04:09;;;;;;;19.08;12.38;;;;;;;25.49;61.95;100577.69;5086755;28;20077;-24
2021/07/09 06:06:34;;;;;;;17.02;12.65;;;;;;;25.29;61.28;100573.44;5086905;28;20048;-25
2021/07/09 06:08:59;;;;;;;17.17;12.40;;;;;;;25.30;61.58;100577.81;5086998;28;20036;-22
2021/07/09 06:11:26;;;;;;;16.17;12.82;;;;;;;25.55;60.66;100570.97;5086796;28;20028;-22
2021/07/09 06:13:55;;;;;;;15.40;13.70;;;;;;;25.89;60.49;100584.13;5086105;28;20048;-22
2021/07/09 06:16:20;;;;;;;15.60;12.73;;;;;;;25.67;60.59;100571.25;5086602;28;20773;-22
2021/07/09 06:18:46;;;;;;;16.30;13.80;;;;;;;25.85;60.41;100580.41;5086811;28;20036;-22
2021/07/09 06:21:11;;;;;;;14.40;12.43;;;;;;;25.87;60.00;100578.19;5087259;28;20101;-22
2021/07/09 06:23:37;;;;;;;16.17;13.75;;;;;;;25.81;60.52;100554.81;5087212;28;20495;-22
2021/07/09 06:26:02;;;;;;;14.93;12.43;;;;;;;25.83;59.34;100571.72;5090312;28;20043;-22
2021/07/09 06:28:27;;;;;;;15.57;12.48;;;;;;;25.87;60.01;100550.84;5055739;28;20024;-22
2021/07/09 06:30:53;;;;;;;17.38;12.95;;;;;;;26.28;58.19;100558.06;5072455;28;20036;-22
2021/07/09 06:33:19;;;;;;;18.42;15.07;;;;;;;26.58;57.17;100550.19;5090742;28;20431;-22
2021/07/09 06:35:44;;;;;;;17.70;14.43;;;;;;;26.78;57.71;100552.38;5090352;28;20123;-22
2021/07/09 06:38:10;;;;;;;20.20;16.55;;;;;;;26.96;56.01;100557.94;5090627;28;20107;-22
2021/07/09 06:40:35;;;;;;;15.45;13.02;;;;;;;26.85;57.85;100551.94;5090535;28;20032;-22
2021/07/09 06:43:01;;;;;;;19.02;13.95;;;;;;;26.45;57.92;100535.47;5090350;28;20024;-22
2021/07/09 06:45:26;;;;;;;15.52;13.10;;;;;;;27.03;56.22;100552.78;5090090;28;20085;-22
2021/07/09 06:47:52;;;;;;;11.93;10.38;;;;;;;27.15;55.22;100546.69;5090357;28;20077;-22
2021/07/09 06:50:17;;;;;;;12.75;11.20;;;;;;;27.20;54.69;100541.09;5090199;28;20039;-22
2021/07/09 06:52:43;;;;;;;13.13;11.65;;;;;;;27.16;55.90;100540.91;5090340;28;20028;-22
2021/07/09 06:55:12;;;;;;;12.98;10.73;;;;;;;27.25;54.72;100539.00;5090015;28;20032;-22
2021/07/09 06:57:39;;;;;;;13.27;11.20;;;;;;;27.34;55.09;100535.47;5090144;28;20032;-22
2021/07/09 07:00:07;;;;;;;13.25;10.57;;;;;;;27.12;55.05;100536.41;5089805;28;20077;-22
2021/07/09 07:02:33;;;;;;;12.60;10.10;;;;;;;27.33;53.01;100523.72;5089891;28;20024;-22
2021/07/09 07:05:00;;;;;;;13.18;10.27;;;;;;;27.30;55.13;100523.56;5071771;28;20024;-22
2021/07/09 07:07:26;;;;;;;12.10;10.00;;;;;;;27.33;54.38;100531.13;5089807;28;20101;-22
2021/07/09 07:09:51;;;;;;;13.90;9.38;;;;;;;27.35;54.22;100531.63;5089822;28;20769;-22
2021/07/09 07:12:17;;;;;;;11.18;9.55;;;;;;;27.39;54.85;100527.13;5089617;28;20052;-22
2021/07/09 07:14:42;;;;;;;8.88;7.97;;;;;;;27.56;49.38;100515.34;5089656;28;20060;-23
2021/07/09 07:17:09;;;;;;;12.30;10.70;;;;;;;27.48;52.06;100516.97;5089477;28;20119;-24
2021/07/09 07:19:34;;;;;;;12.05;9.30;;;;;;;27.53;52.98;100516.81;5071477;28;20035;-23
2021/07/09 07:22:02;;;;;;;12.93;8.57;;;;;;;27.81;51.70;100527.44;5089126;28;20043;-23
2021/07/09 07:24:28;;;;;;;10.27;7.00;;;;;;;27.95;48.00;100528.13;5089645;28;20042;-23
2021/07/09 07:26:53;;;;;;;10.70;7.68;;;;;;;28.20;49.57;100512.72;5089539;28;20149;-23
2021/07/09 07:29:19;;;;;;;10.60;7.25;;;;;;;28.15;47.91;100510.16;5089527;28;20069;-24
2021/07/09 07:31:44;;;;;;;8.52;6.60;;;;;;;28.32;47.07;100520.28;5088982;28;20048;-24
2021/07/09 07:34:10;;;;;;;10.63;6.40;;;;;;;28.13;48.42;100506.13;5089227;28;20020;-24
2021/07/09 07:36:36;;;;;;;9.48;6.93;;;;;;;28.47;46.17;100510.69;5088569;28;20028;-24
2021/07/09 07:39:02;;;;;;;9.38;6.53;;;;;;;28.39;45.85;100495.88;5089137;28;21026;-24
2021/07/09 07:41:27;;;;;;;9.23;6.60;;;;;;;28.82;46.75;100507.81;5089250;28;20114;-24
2021/07/09 07:43:53;;;;;;;7.10;5.60;;;;;;;28.82;44.46;100508.63;5088634;28;20035;-24
2021/07/09 07:46:18;;;;;;;7.28;6.30;;;;;;;28.66;44.69;100491.09;5088989;28;20129;-24
2021/07/09 07:48:44;;;;;;;7.57;5.82;;;;;;;28.99;44.38;100505.00;5089096;28;20569;-24
2021/07/09 07:51:09;;;;;;;6.95;5.40;;;;;;;28.47;43.92;100501.66;5088891;28;20388;-24
2021/07/09 07:53:36;;;;;;;7.63;5.88;;;;;;;28.77;43.61;100508.81;5089231;28;20032;-24
2021/07/09 07:56:02;;;;;;;8.55;5.78;;;;;;;28.96;44.96;100502.09;5091091;28;20072;-24
2021/07/09 07:58:28;;;;;;;7.03;5.78;;;;;;;28.97;44.86;100490.78;5096962;28;20043;-24
2021/07/09 08:00:53;;;;;;;8.90;5.78;;;;;;;28.91;44.06;100507.75;5099345;28;20031;-24
2021/07/09 08:03:19;;;;;;;7.68;6.30;;;;;;;29.00;43.58;100508.53;5101780;28;20028;-24
2021/07/09 08:05:44;;;;;;;8.45;6.78;;;;;;;29.21;43.84;100500.34;5096716;28;20028;-24
2021/07/09 08:08:10;;;;;;;7.40;5.53;;;;;;;29.24;44.70;100494.19;5099099;28;20031;-24
2021/07/09 08:10:35;;;;;;;7.72;5.60;;;;;;;29.44;44.83;100481.56;5095876;28;20548;-24
2021/07/09 08:13:01;;;;;;;11.02;6.80;;;;;;;29.74;43.54;100500.75;5088317;28;20060;-24
2021/07/09 08:15:26;;;;;;;7.03;5.65;;;;;;;29.57;43.01;100493.44;5088931;28;20680;-24
2021/07/09 08:17:52;;;;;;;8.13;5.85;;;;;;;29.74;44.67;100487.00;5088396;28;20482;-24
2021/07/09 08:20:17;;;;;;;8.82;5.22;;;;;;;29.80;40.00;100488.41;5087495;28;20081;-24
2021/07/09 08:22:43;;;;;;;7.47;5.25;;;;;;;29.94;41.02;100482.59;5088428;28;20036;-24
2021/07/09 08:25:09;;;;;;;10.10;5.85;;;;;;;29.99;43.55;100485.91;5087427;28;20023;-24
2021/07/09 08:27:40;;;;;;;14.02;5.53;;;;;;;30.11;41.44;100476.09;5087735;28;20056;-25
2021/07/09 08:30:06;;;;;;;7.07;5.15;;;;;;;30.04;40.43;100462.91;5095935;28;20410;-24
2021/07/09 08:32:33;;;;;;;8.82;5.90;;;;;;;29.75;41.87;100469.34;5097424;28;20433;-24
2021/07/09 08:34:58;;;;;;;7.50;5.30;;;;;;;29.63;41.65;100470.91;5095960;28;20031;-24
2021/07/09 08:37:24;;;;;;;8.52;5.50;;;;;;;29.91;40.62;100473.06;5090410;28;20028;-24
2021/07/09 08:39:50;;;;;;;7.50;5.78;;;;;;;30.23;40.87;100476.91;5069706;28;20120;-24
2021/07/09 08:42:15;;;;;;;7.43;4.72;;;;;;;30.30;39.36;100459.06;5101691;28;20039;-24
2021/07/09 08:44:41;;;;;;;6.43;5.38;;;;;;;29.77;39.58;100445.91;5108793;28;20110;-24
2021/07/09 08:47:06;;;;;;;6.88;5.90;;;;;;;30.16;39.53;100454.69;5108435;28;20027;-24
2021/07/09 08:49:32;;;;;;;5.88;5.13;;;;;;;30.20;38.61;100458.34;5108100;28;20024;-24
2021/07/09 08:51:57;;;;;;;8.55;5.30;;;;;;;30.25;39.05;100454.56;5085374;28;20028;-24
2021/07/09 08:54:23;;;;;;;7.45;4.93;;;;;;;30.63;38.96;100464.47;5087915;28;20457;-24
2021/07/09 08:56:51;;;;;;;8.60;5.35;;;;;;;30.57;36.90;100443.84;5069692;28;20030;-24
2021/07/09 08:59:16;;;;;;;7.45;4.78;;;;;;;30.80;37.28;100463.41;5070286;28;20073;-24
2021/07/09 09:02:01;;;;;;;7.70;4.75;;;;;;;30.95;37.51;100454.47;5087871;28;20036;-24
2021/07/09 09:04:34;;;;;;;8.48;4.90;;;;;;;31.09;36.25;100459.59;5087986;28;20790;-24
2021/07/09 09:07:01;;;;;;;13.10;5.07;;;;;;;30.61;39.01;100442.00;5087610;28;20101;-24
2021/07/09 09:09:27;;;;;;;;;;;;;;;30.41;39.37;100458.28;5088010;28;20032;-25
2021/07/09 09:12:15;;;;;;;8.30;5.15;;;;;;;30.71;37.40;100449.78;5087170;28;20416;-25
2021/07/09 09:14:45;;;;;;;7.10;4.78;;;;;;;30.90;37.44;100440.16;5087305;28;20139;-24
2021/07/09 09:17:33;;;;;;;6.95;4.80;;;;;;;31.25;36.95;100451.41;5087382;28;20028;-24
2021/07/09 09:20:13;;;;;;;8.38;4.80;;;;;;;31.34;37.02;100448.50;5087112;28;20048;-24
2021/07/09 09:22:47;;;;;;;6.95;4.63;;;;;;;31.40;36.17;100447.09;5087647;28;20093;-24
2021/07/09 09:25:13;;;;;;;6.80;5.05;;;;;;;31.44;35.34;100450.78;5087651;28;20403;-24
2021/07/09 09:27:38;;;;;;;6.07;4.68;;;;;;;31.68;36.86;100443.56;5069565;28;20526;-23
2021/07/09 09:30:10;;;;;;;6.97;4.57;;;;;;;31.07;38.10;100448.13;5087801;28;20039;-23
2021/07/09 09:32:46;;;;;;;8.27;4.72;;;;;;;30.98;37.21;100453.78;5087335;28;20032;-23
2021/07/09 09:35:12;;;;;;;7.38;4.30;;;;;;;30.29;37.62;100443.69;5087023;28;20099;-23
2021/07/09 09:37:38;;;;;;;8.65;4.45;;;;;;;30.70;36.82;100453.69;5093607;28;20024;-23
2021/07/09 09:40:14;;;;;;;6.60;4.05;;;;;;;31.03;38.56;100444.47;5052675;28;20024;-23
2021/07/09 09:42:40;;;;;;;5.95;3.80;;;;;;;31.34;35.57;100429.22;5079235;28;20024;-23
2021/07/09 09:45:06;;;;;;;6.75;4.20;;;;;;;31.01;37.69;100452.28;5093752;28;20124;-23
2021/07/09 09:47:32;;;;;;;6.05;3.90;;;;;;;30.97;38.14;100441.16;5097653;28;20016;-23
2021/07/09 09:50:02;;;;;;;9.77;4.20;;;;;;;30.67;38.17;100448.88;5098658;28;20046;-23
2021/07/09 09:52:47;;;;;;;6.88;3.83;;;;;;;30.84;35.76;100451.38;5088679;28;20991;-23
2021/07/09 09:55:19;;;;;;;5.82;3.70;;;;;;;31.01;35.11;100435.75;5094337;28;20510;-23
2021/07/09 09:57:45;;;;;;;5.57;3.70;;;;;;;30.83;34.80;100436.00;5070647;28;20054;-24
2021/07/09 10:00:16;;;;;;;6.80;3.58;;;;;;;31.12;33.64;100436.06;5089463;28;20084;-23
2021/07/09 10:02:44;;;;;;;7.18;3.95;;;;;;;30.93;35.42;100439.44;5090556;28;20107;-23
2021/07/09 10:05:10;;;;;;;9.02;4.22;;;;;;;31.63;36.68;100426.13;5089832;28;20518;-23
2021/07/09 10:07:35;;;;;;;7.35;4.00;;;;;;;32.02;36.53;100423.63;5090619;28;20031;-23
2021/07/09 10:10:02;;;;;;;7.20;3.40;;;;;;;31.91;33.11;100430.78;5090284;28;20024;-23
2021/07/09 10:12:28;;;;;;;6.07;3.35;;;;;;;31.13;33.53;100432.97;5090183;28;20051;-23
2021/07/09 10:14:53;;;;;;;5.03;3.53;;;;;;;31.29;34.61;100440.50;5076167;28;20067;-23
2021/07/09 10:17:19;;;;;;;7.30;3.28;;;;;;;32.20;31.29;100434.28;5081304;28;20077;-23
2021/07/09 10:19:47;;;;;;;4.28;2.75;;;;;;;32.63;30.81;100438.09;5061309;28;20491;-24
2021/07/09 10:22:13;;;;;;;6.13;3.03;;;;;;;32.65;30.05;100426.69;5089665;28;20054;-23
2021/07/09 10:24:42;;;;;;;8.35;3.17;;;;;;;33.01;28.89;100419.97;5096880;28;20035;-23
2021/07/09 10:27:08;;;;;;;8.45;3.33;;;;;;;33.26;29.83;100414.19;5077725;28;20085;-23
2021/07/09 10:29:35;;;;;;;6.63;3.17;;;;;;;32.52;31.68;100406.66;5082309;28;20803;-23
2021/07/09 10:32:04;;;;;;;9.38;3.28;;;;;;;32.63;33.20;100396.66;5083393;28;20865;-23
2021/07/09 10:34:35;;;;;;;9.95;3.47;;;;;;;33.31;32.83;100413.91;5098090;28;20035;-23
2021/07/09 10:37:03;;;;;;;6.97;3.05;;;;;;;33.51;30.88;100409.97;5097665;28;20092;-23
2021/07/09 10:39:38;;;;;;;6.75;3.42;;;;;;;32.55;28.95;100405.94;5098400;28;20063;-23
2021/07/09 10:42:30;;;;;;;6.85;3.47;;;;;;;33.15;30.56;100403.72;5100104;28;20479;-23
2021/07/09 10:45:09;;;;;;;6.45;3.22;;;;;;;33.49;31.33;100404.00;5094211;28;20156;-23
2021/07/09 10:47:39;;;;;;;4.90;2.70;;;;;;;33.00;28.31;100382.47;5078237;28;20044;-23
2021/07/09 10:50:16;;;;;;;5.95;3.13;;;;;;;32.89;30.93;100392.50;5093981;28;20040;-23
2021/07/09 10:52:44;;;;;;;9.23;3.85;;;;;;;32.20;30.54;100390.13;5098805;28;20030;-23
2021/07/09 10:55:25;;;;;;;4.65;2.90;;;;;;;30.92;30.56;100377.28;5096308;28;20077;-24
2021/07/09 10:58:22;;;;;;;5.85;3.45;;;;;;;31.27;31.30;100376.69;5098647;28;20554;-23
2021/07/09 11:00:57;;;;;;;5.43;3.05;;;;;;;32.00;31.49;100375.50;5094810;28;20040;-23
2021/07/09 11:03:29;;;;;;;7.63;3.15;;;;;;;32.35;30.43;100367.25;5098702;28;20091;-23
2021/07/09 11:05:56;;;;;;;6.03;3.45;;;;;;;32.59;30.23;100381.97;5098350;28;20031;-23
2021/07/09 11:08:33;;;;;;;7.82;3.20;;;;;;;32.47;31.41;100371.03;5097302;28;20035;-23
2021/07/09 11:11:03;;;;;;;7.72;2.85;;;;;;;32.47;30.35;100357.22;5092730;28;20047;-23
2021/07/09 11:13:40;;;;;;;5.97;3.40;;;;;;;32.92;32.44;100378.75;5097549;28;20058;-23
2021/07/09 11:16:24;;;;;;;6.97;3.28;;;;;;;33.75;28.98;100372.06;5097595;28;20035;-23